createdAt,value
2022-08-13T00:00:51.087Z,96920.81
2022-08-13T00:03:59.244Z,96926.75
2022-08-13T00:06:27.924Z,96928.25
2022-08-13T00:08:57.761Z,96913.25
2022-08-13T00:12:00.662Z,96921.66
2022-08-13T00:14:35.403Z,96931.28
2022-08-13T00:17:08.286Z,96927.25
2022-08-13T00:19:38.127Z,96918.13
2022-08-13T00:22:29.767Z,96922.63
2022-08-13T00:24:54.606Z,96927.50
2022-08-13T00:27:24.335Z,96926.03
2022-08-13T00:29:57.619Z,96918.66
2022-08-13T00:32:32.913Z,96919.69
2022-08-13T00:35:02.117Z,96921.16
2022-08-13T00:37:34.327Z,96911.34
2022-08-13T00:40:31.170Z,96916.84
2022-08-13T00:43:06.975Z,96912.59
2022-08-13T00:45:35.345Z,96910.31
2022-08-13T00:48:25.377Z,96910.31
2022-08-13T00:50:57.842Z,96910.22
2022-08-13T00:53:30.883Z,96911.00
2022-08-13T00:56:13.685Z,96910.34
2022-08-13T00:58:43.433Z,96914.69
2022-08-13T01:01:17.677Z,96908.97
2022-08-13T01:04:10.553Z,96907.53
2022-08-13T01:06:37.126Z,96916.88
2022-08-13T01:10:16.074Z,96916.44
2022-08-13T01:12:02.448Z,96909.56
2022-08-13T01:14:35.658Z,96902.16
2022-08-13T01:17:14.779Z,96907.56
2022-08-13T01:19:53.466Z,96912.47
2022-08-13T01:22:44.912Z,96908.28
2022-08-13T01:25:16.911Z,96911.16
2022-08-13T01:27:44.961Z,96905.38
2022-08-13T01:30:17.378Z,96905.38
2022-08-13T01:32:55.003Z,96890.59
2022-08-13T01:35:25.757Z,96893.09
2022-08-13T01:37:59.355Z,96893.91
2022-08-13T01:40:32.486Z,96886.84
2022-08-13T01:43:03.007Z,96889.31
2022-08-13T01:45:51.989Z,96873.28
2022-08-13T01:48:48.077Z,96881.00
2022-08-13T01:51:32.489Z,96883.91
2022-08-13T01:54:30.398Z,96871.38
2022-08-13T01:56:54.526Z,96870.38
2022-08-13T01:59:21.572Z,96863.75
2022-08-13T02:01:52.122Z,96871.09
2022-08-13T02:04:25.533Z,96864.97
2022-08-13T02:07:05.579Z,96871.09
2022-08-13T02:09:59.663Z,96868.25
2022-08-13T02:12:33.246Z,96863.13
2022-08-13T02:15:07.416Z,96859.75
2022-08-13T02:18:01.199Z,96860.97
2022-08-13T02:20:35.849Z,96867.34
2022-08-13T02:23:07.949Z,96867.91
2022-08-13T02:25:37.747Z,96866.72
2022-08-13T02:28:12.690Z,96869.19
2022-08-13T02:30:55.382Z,96870.00
2022-08-13T02:33:22.599Z,96855.19
2022-08-13T02:36:08.433Z,96865.47
2022-08-13T02:38:39.107Z,96864.53
2022-08-13T02:41:25.394Z,96854.75
2022-08-13T02:43:54.496Z,96858.22
2022-08-13T02:46:27.826Z,96858.84
2022-08-13T02:49:03.555Z,96858.47
2022-08-13T02:52:09.945Z,96870.78
2022-08-13T02:54:30.596Z,96871.22
2022-08-13T02:57:00.356Z,96862.41
2022-08-13T03:00:01.750Z,96868.47
2022-08-13T03:02:20.810Z,96874.97
2022-08-13T03:04:48.840Z,96880.63
2022-08-13T03:07:16.034Z,96879.81
2022-08-13T03:09:46.543Z,96883.19
2022-08-13T03:12:18.813Z,96889.88
2022-08-13T03:14:58.248Z,96881.91
2022-08-13T03:17:25.791Z,96888.69
2022-08-13T03:19:57.110Z,96881.19
2022-08-13T03:22:27.285Z,96879.19
2022-08-13T03:24:55.605Z,96875.97
2022-08-13T03:27:23.085Z,96877.72
2022-08-13T03:30:02.786Z,96878.28
2022-08-13T03:32:48.164Z,96877.00
2022-08-13T03:35:42.864Z,96877.97
2022-08-13T03:38:16.519Z,96879.25
2022-08-13T03:41:02.130Z,96879.19
2022-08-13T03:43:39.554Z,96886.41
2022-08-13T03:46:27.540Z,96882.47
2022-08-13T03:48:55.487Z,96888.06
2022-08-13T03:51:35.523Z,96890.53
2022-08-13T03:54:04.906Z,96885.00
2022-08-13T03:56:32.599Z,96895.94
2022-08-13T03:59:03.543Z,96881.50
2022-08-13T04:01:31.120Z,96880.13
2022-08-13T04:03:59.327Z,96878.03
2022-08-13T04:06:27.658Z,96880.78
2022-08-13T04:08:55.077Z,96874.81
2022-08-13T04:11:28.042Z,96872.16
2022-08-13T04:14:06.461Z,96875.00
2022-08-13T04:16:48.075Z,96876.56
2022-08-13T04:19:17.608Z,96874.06
2022-08-13T04:21:47.004Z,96877.69
2022-08-13T04:24:15.702Z,96872.59
2022-08-13T04:26:47.431Z,96868.72
2022-08-13T04:29:18.239Z,96877.56
2022-08-13T04:31:51.407Z,96871.13
2022-08-13T04:34:32.058Z,96880.91
2022-08-13T04:37:09.895Z,96881.50
2022-08-13T04:40:03.119Z,96884.44
2022-08-13T04:42:55.292Z,96880.47
2022-08-13T04:45:30.795Z,96880.75
2022-08-13T04:48:11.175Z,96881.28
2022-08-13T04:50:38.954Z,96884.66
2022-08-13T04:53:23.419Z,96873.06
2022-08-13T04:56:08.571Z,96876.00
2022-08-13T04:58:38.737Z,96880.63
2022-08-13T05:01:47.914Z,96865.13
2022-08-13T05:03:57.163Z,96874.22
2022-08-13T05:06:39.463Z,96888.06
2022-08-13T05:09:10.194Z,96876.53
2022-08-13T05:11:37.250Z,96871.13
2022-08-13T05:14:09.819Z,96869.44
2022-08-13T05:16:39.749Z,96867.84
2022-08-13T05:19:08.056Z,96871.22
2022-08-13T05:21:58.552Z,96871.28
2022-08-13T05:26:18.857Z,96849.06
2022-08-13T05:27:14.151Z,96864.03
2022-08-13T05:30:03.451Z,96860.19
2022-08-13T05:32:37.677Z,96852.50
2022-08-13T05:35:14.587Z,96854.84
2022-08-13T05:38:12.966Z,96852.91
2022-08-13T05:40:36.516Z,96840.97
2022-08-13T05:43:10.188Z,96854.13
2022-08-13T05:45:50.608Z,96849.38
2022-08-13T05:48:21.026Z,96840.59
2022-08-13T05:50:56.351Z,96831.81
2022-08-13T05:53:24.322Z,96822.69
2022-08-13T05:56:12.787Z,96824.16
2022-08-13T05:58:44.241Z,96824.06
2022-08-13T06:01:30.173Z,96827.03
2022-08-13T06:04:25.804Z,96819.28
2022-08-13T06:06:46.946Z,96817.81
2022-08-13T06:09:14.728Z,96815.56
2022-08-13T06:12:25.566Z,96818.25
2022-08-13T06:14:39.584Z,96807.56
2022-08-13T06:17:12.417Z,96815.78
2022-08-13T06:19:50.287Z,96804.38
2022-08-13T06:22:20.934Z,96803.94
2022-08-13T06:24:54.044Z,96797.31
2022-08-13T06:27:56.922Z,96796.19
2022-08-13T06:30:29.248Z,96790.63
2022-08-13T06:34:06.124Z,96795.09
2022-08-13T06:35:56.076Z,96791.88
2022-08-13T06:38:33.357Z,96786.47
2022-08-13T06:41:02.886Z,96787.56
2022-08-13T06:43:48.344Z,96773.31
2022-08-13T06:46:30.286Z,96772.94
2022-08-13T06:49:02.114Z,96773.28
2022-08-13T06:51:36.901Z,96772.75
2022-08-13T06:54:24.397Z,96772.25
2022-08-13T06:56:59.926Z,96762.88
2022-08-13T06:59:55.107Z,96761.53
2022-08-13T07:02:30.831Z,96755.03
2022-08-13T07:04:59.858Z,96757.44
2022-08-13T07:07:32.084Z,96770.69
2022-08-13T07:10:00.944Z,96765.47
2022-08-13T07:12:28.092Z,96760.06
2022-08-13T07:14:58.898Z,96756.50
2022-08-13T07:17:31.085Z,96762.78
2022-08-13T07:20:05.098Z,96759.78
2022-08-13T07:24:37.040Z,96746.81
2022-08-13T07:25:57.267Z,96753.34
2022-08-13T07:28:40.684Z,96744.25
2022-08-13T07:31:11.137Z,96749.59
2022-08-13T07:33:53.945Z,96751.13
2022-08-13T07:36:26.068Z,96753.38
2022-08-13T07:38:53.523Z,96740.16
2022-08-13T07:41:22.130Z,96743.88
2022-08-13T07:44:03.058Z,96749.22
2022-08-13T07:46:48.618Z,96751.84
2022-08-13T07:49:20.495Z,96744.56
2022-08-13T07:51:50.533Z,96744.25
2022-08-13T07:54:20.489Z,96738.81
2022-08-13T07:59:24.409Z,96740.06
2022-08-13T08:02:20.134Z,96739.88
2022-08-13T08:04:58.439Z,96737.75
2022-08-13T08:07:30.944Z,96739.50
2022-08-13T08:10:18.202Z,96748.22
2022-08-13T08:12:52.780Z,96742.88
2022-08-13T08:16:02.566Z,96734.25
2022-08-13T08:18:35.153Z,96730.84
2022-08-13T08:21:47.894Z,96737.13
2022-08-13T08:24:02.246Z,96746.06
2022-08-13T08:26:33.422Z,96738.75
2022-08-13T08:29:04.655Z,96744.44
2022-08-13T08:31:58.526Z,96730.28
2022-08-13T08:34:22.131Z,96735.66
2022-08-13T08:36:50.059Z,96730.66
2022-08-13T08:39:37.838Z,96720.28
2022-08-13T08:42:30.960Z,96720.09
2022-08-13T08:45:00.094Z,96713.03
2022-08-13T08:47:48.110Z,96712.16
2022-08-13T08:50:29.566Z,96715.59
2022-08-13T08:53:34.175Z,96712.78
2022-08-13T08:56:08.574Z,96702.78
2022-08-13T08:58:41.002Z,96698.81
2022-08-13T09:01:11.037Z,96679.16
2022-08-13T09:03:45.874Z,96703.22
2022-08-13T09:06:53.245Z,96703.91
2022-08-13T09:09:20.031Z,96685.50
2022-08-13T09:11:55.445Z,96691.69
2022-08-13T09:14:34.450Z,96683.13
2022-08-13T09:17:13.031Z,96676.56
2022-08-13T09:19:46.932Z,96674.16
2022-08-13T09:22:26.182Z,96687.66
2022-08-13T09:24:58.469Z,96676.84
2022-08-13T09:28:03.094Z,96677.13
2022-08-13T09:30:24.007Z,96678.91
2022-08-13T09:32:56.623Z,96671.81
2022-08-13T09:35:28.686Z,96667.59
2022-08-13T09:38:05.324Z,96668.00
2022-08-13T09:40:47.108Z,96664.44
2022-08-13T09:43:44.028Z,96655.94
2022-08-13T09:46:14.990Z,96659.19
2022-08-13T09:48:47.645Z,96671.38
2022-08-13T09:52:02.356Z,96671.00
2022-08-13T09:54:06.094Z,96660.19
2022-08-13T09:56:39.145Z,96664.88
2022-08-13T09:59:15.969Z,96656.88
2022-08-13T10:02:00.054Z,96652.91
2022-08-13T10:04:29.249Z,96638.25
2022-08-13T10:07:01.068Z,96646.09
2022-08-13T10:09:34.048Z,96642.88
2022-08-13T10:12:19.960Z,96648.72
2022-08-13T10:14:57.217Z,96638.56
2022-08-13T10:17:42.723Z,96631.03
2022-08-13T10:20:18.283Z,96636.94
2022-08-13T10:22:47.519Z,96622.25
2022-08-13T10:25:17.718Z,96627.56
2022-08-13T10:27:53.033Z,96624.44
2022-08-13T10:30:59.795Z,96610.06
2022-08-13T10:33:15.838Z,96618.34
2022-08-13T10:35:55.656Z,96615.59
2022-08-13T10:38:29.796Z,96624.06
2022-08-13T10:41:05.998Z,96617.72
2022-08-13T10:43:45.748Z,96618.63
2022-08-13T10:46:27.770Z,96628.16
2022-08-13T10:48:58.914Z,96626.56
2022-08-13T10:51:36.476Z,96623.78
2022-08-13T10:54:21.361Z,96620.88
2022-08-13T10:56:59.455Z,96625.75
2022-08-13T10:59:27.255Z,96612.03
2022-08-13T11:01:54.539Z,96603.38
2022-08-13T11:04:25.025Z,96614.38
2022-08-13T11:07:02.111Z,96603.56
2022-08-13T11:09:36.677Z,96599.19
2022-08-13T11:12:09.549Z,96597.97
2022-08-13T11:14:38.881Z,96589.44
2022-08-13T11:17:34.789Z,96591.81
2022-08-13T11:20:08.690Z,96595.53
2022-08-13T11:22:36.034Z,96595.19
2022-08-13T11:25:18.438Z,96587.66
2022-08-13T11:27:54.044Z,96600.22
2022-08-13T11:30:31.488Z,96588.25
2022-08-13T11:33:05.653Z,96588.28
2022-08-13T11:35:37.881Z,96577.38
2022-08-13T11:38:09.848Z,96584.41
2022-08-13T11:40:40.404Z,96578.00
2022-08-13T11:43:13.215Z,96573.31
2022-08-13T11:45:51.245Z,96574.59
2022-08-13T11:48:29.558Z,96570.34
2022-08-13T11:50:58.788Z,96560.28
2022-08-13T11:53:29.107Z,96562.59
2022-08-13T11:56:02.370Z,96578.09
2022-08-13T11:58:47.822Z,96576.66
2022-08-13T12:01:41.901Z,96559.06
2022-08-13T12:04:17.914Z,96569.00
2022-08-13T12:06:50.605Z,96557.09
2022-08-13T12:09:24.127Z,96548.56
2022-08-13T12:12:10.078Z,96549.75
2022-08-13T12:14:40.286Z,96552.47
2022-08-13T12:17:08.411Z,96550.84
2022-08-13T12:19:36.434Z,96553.00
2022-08-13T12:22:04.017Z,96556.66
2022-08-13T12:24:34.175Z,96551.44
2022-08-13T12:27:03.756Z,96558.69
2022-08-13T12:29:45.895Z,96553.50
2022-08-13T12:32:17.803Z,96544.28
2022-08-13T12:34:48.280Z,96544.97
2022-08-13T12:37:26.690Z,96544.50
2022-08-13T12:40:06.698Z,96545.69
2022-08-13T12:42:35.076Z,96551.53
2022-08-13T12:45:19.219Z,96552.44
2022-08-13T12:47:50.272Z,96540.88
2022-08-13T13:47:58.527Z,96551.66
2022-08-13T13:54:09.775Z,96547.38
2022-08-13T13:57:38.663Z,96551.13
2022-08-13T14:00:42.602Z,96553.53
2022-08-13T14:03:24.307Z,96562.72
2022-08-13T14:06:01.642Z,96563.75
2022-08-13T14:08:35.301Z,96565.44
2022-08-13T14:11:12.350Z,96572.78
2022-08-13T14:14:01.361Z,96576.88
2022-08-13T14:16:54.743Z,96578.81
2022-08-13T14:22:19.843Z,96586.72
2022-08-13T14:27:46.036Z,96604.47
2022-08-13T14:34:56.111Z,96623.44
2022-08-13T14:37:34.139Z,96615.25
2022-08-13T14:40:20.946Z,96627.09
2022-08-13T14:46:00.328Z,96638.81
2022-08-13T14:48:41.341Z,96626.31
2022-08-13T14:51:25.442Z,96629.72
2022-08-13T14:54:28.604Z,96633.06
2022-08-13T14:57:40.297Z,96629.72
2022-08-13T14:59:44.747Z,96633.97
2022-08-13T15:02:25.496Z,96629.06
2022-08-13T15:08:16.286Z,96630.00
2022-08-13T15:11:06.306Z,96626.13
2022-08-13T15:13:55.063Z,96633.44
2022-08-13T15:16:32.681Z,96629.06
2022-08-13T15:28:29.070Z,96630.34
2022-08-13T15:31:02.349Z,96638.28
2022-08-13T15:33:37.449Z,96632.28
2022-08-13T15:36:07.192Z,96631.44
2022-08-13T15:38:34.535Z,96635.28
2022-08-13T15:41:06.656Z,96629.31
2022-08-13T15:43:37.306Z,96636.19
2022-08-13T15:46:15.764Z,96630.69
2022-08-13T15:49:08.508Z,96627.13
2022-08-13T15:51:57.517Z,96626.31
2022-08-13T15:54:29.405Z,96623.50
2022-08-13T15:57:11.165Z,96624.03
2022-08-13T15:59:47.291Z,96632.00
2022-08-13T16:05:11.080Z,96631.16
2022-08-13T16:07:50.799Z,96637.53
2022-08-13T16:10:23.111Z,96637.06
2022-08-13T16:13:19.154Z,96631.81
2022-08-13T16:18:54.275Z,96631.19
2022-08-13T16:21:28.407Z,96638.91
2022-08-13T16:24:06.966Z,96627.31
2022-08-13T16:26:44.967Z,96632.69
2022-08-13T16:29:14.412Z,96639.72
2022-08-13T16:31:44.674Z,96642.88
2022-08-13T16:34:24.720Z,96636.25
2022-08-13T16:39:48.901Z,96636.06
2022-08-13T16:42:16.275Z,96633.03
2022-08-13T16:44:47.516Z,96634.69
2022-08-13T16:47:25.918Z,96635.50
2022-08-13T16:50:08.032Z,96639.75
2022-08-13T16:56:19.437Z,96643.38
2022-08-13T16:58:55.476Z,96644.09
2022-08-13T17:02:03.540Z,96638.81
2022-08-13T17:05:17.492Z,96642.66
2022-08-13T17:08:03.737Z,96636.50
2022-08-13T17:10:33.556Z,96640.44
2022-08-13T17:13:22.275Z,96640.22
2022-08-13T17:15:52.227Z,96645.03
2022-08-13T17:18:21.319Z,96639.78
2022-08-13T17:24:52.480Z,96640.97
2022-08-13T17:27:25.159Z,96636.97
2022-08-13T17:29:55.373Z,96637.78
2022-08-13T17:32:47.896Z,96643.03
2022-08-13T17:35:24.982Z,96649.56
2022-08-13T17:38:09.222Z,96645.22
2022-08-13T17:40:40.616Z,96639.38
2022-08-13T17:43:58.730Z,96642.97
2022-08-13T17:46:10.753Z,96644.03
2022-08-13T17:48:59.263Z,96644.94
2022-08-13T17:51:32.932Z,96647.84
2022-08-13T17:54:06.355Z,96646.22
2022-08-13T17:57:01.678Z,96649.13
2022-08-13T17:59:47.212Z,96649.91
2022-08-13T18:02:23.743Z,96657.16
2022-08-13T18:07:48.354Z,96646.97
2022-08-13T18:10:19.893Z,96640.34
2022-08-13T18:12:52.113Z,96651.16
2022-08-13T18:17:01.619Z,96656.44
2022-08-13T18:18:48.018Z,96658.03
2022-08-13T18:21:11.631Z,96658.81
2022-08-13T18:23:53.654Z,96652.38
2022-08-13T18:26:25.864Z,96653.75
2022-08-13T18:28:57.943Z,96656.22
2022-08-13T18:31:27.798Z,96660.81
2022-08-13T18:34:13.935Z,96661.03
2022-08-13T18:36:43.403Z,96659.41
2022-08-13T18:39:20.168Z,96664.78
2022-08-13T18:41:49.754Z,96669.53
2022-08-13T18:44:22.786Z,96671.03
2022-08-13T18:47:03.325Z,96675.03
2022-08-13T18:49:51.312Z,96675.03
2022-08-13T18:52:39.096Z,96681.88
2022-08-13T18:55:34.506Z,96686.44
2022-08-13T19:02:23.447Z,96687.13
2022-08-13T19:04:51.220Z,96690.69
2022-08-13T19:07:35.364Z,96690.25
2022-08-13T19:10:41.841Z,96687.63
2022-08-13T19:16:30.762Z,96685.50
2022-08-13T19:19:54.893Z,96693.16
2022-08-13T19:22:37.671Z,96686.38
2022-08-13T19:25:31.468Z,96689.94
2022-08-13T19:28:55.751Z,96684.00
2022-08-13T19:31:34.747Z,96685.00
2022-08-13T19:34:03.135Z,96690.00
2022-08-13T19:39:43.820Z,96698.28
2022-08-13T19:42:34.483Z,96697.06
2022-08-13T19:50:01.016Z,96690.91
2022-08-13T19:52:51.161Z,96693.72
2022-08-13T19:55:53.491Z,96686.50
2022-08-13T19:58:26.004Z,96690.47
2022-08-13T20:00:57.533Z,96687.41
2022-08-13T20:03:40.227Z,96692.78
2022-08-13T20:06:28.949Z,96696.03
2022-08-13T20:08:57.589Z,96695.44
2022-08-13T20:11:44.656Z,96695.88
2022-08-13T20:14:19.592Z,96701.75
2022-08-13T20:17:00.682Z,96698.00
2022-08-13T20:20:00.054Z,96693.03
2022-08-13T20:23:20.541Z,96696.44
2022-08-13T20:26:29.169Z,96694.81
2022-08-13T20:29:31.283Z,96698.53
2022-08-13T20:32:10.416Z,96698.53
2022-08-13T20:34:37.985Z,96700.19
2022-08-13T20:37:18.905Z,96689.72
2022-08-13T20:39:53.862Z,96697.75
2022-08-13T20:42:28.525Z,96692.56
2022-08-13T20:45:43.291Z,96699.22
2022-08-13T20:48:30.202Z,96693.16
2022-08-13T20:51:10.013Z,96701.97
2022-08-13T20:53:48.263Z,96695.47
2022-08-13T20:56:42.362Z,96689.56
2022-08-13T21:00:47.911Z,96689.72
2022-08-13T21:02:12.371Z,96686.25
2022-08-13T21:04:57.308Z,96687.31
2022-08-13T21:07:36.113Z,96687.38
2022-08-13T21:10:28.132Z,96676.53
2022-08-13T21:13:00.761Z,96686.50
2022-08-13T21:15:41.632Z,96681.16
2022-08-13T21:18:22.089Z,96669.94
2022-08-13T21:21:01.662Z,96672.38
2022-08-13T21:26:36.368Z,96666.31
2022-08-13T21:29:32.780Z,96668.03
2022-08-13T21:32:07.498Z,96661.16
2022-08-13T21:35:11.083Z,96657.03
2022-08-13T21:37:42.579Z,96664.97
2022-08-13T21:42:55.454Z,96670.91
2022-08-13T21:43:07.677Z,96661.06
2022-08-13T21:45:37.543Z,96653.31
2022-08-13T21:48:08.560Z,96660.34
2022-08-13T21:50:39.385Z,96670.47
2022-08-13T21:53:28.198Z,96657.72
2022-08-13T21:56:08.019Z,96658.19
2022-08-13T21:58:37.828Z,96667.38
2022-08-13T22:01:07.191Z,96659.50
2022-08-13T22:07:08.893Z,96663.66
2022-08-13T22:10:19.181Z,96663.13
2022-08-13T22:16:38.116Z,96674.91
2022-08-13T22:22:58.130Z,96674.16
2022-08-13T22:28:50.414Z,96666.66
2022-08-13T22:32:04.383Z,96668.34
2022-08-13T22:34:51.612Z,96658.47
2022-08-13T22:37:26.781Z,96664.63
2022-08-13T22:40:11.472Z,96657.34
2022-08-13T22:42:47.496Z,96657.34
2022-08-13T22:45:21.059Z,96648.66
2022-08-13T22:47:56.317Z,96658.72
2022-08-13T22:56:36.197Z,96640.50
2022-08-13T22:59:10.744Z,96627.59
2022-08-13T23:01:46.193Z,96637.72
2022-08-13T23:04:22.499Z,96635.03
2022-08-13T23:06:53.625Z,96634.03
2022-08-13T23:09:29.856Z,96636.13
2022-08-13T23:12:04.963Z,96638.81
2022-08-13T23:14:41.803Z,96644.38
2022-08-13T23:17:12.626Z,96634.47
2022-08-13T23:20:13.918Z,96639.63
2022-08-13T23:23:08.197Z,96634.13
2022-08-13T23:26:30.030Z,96634.53
2022-08-13T23:29:18.304Z,96630.81
2022-08-13T23:31:53.448Z,96625.47
2022-08-13T23:34:58.865Z,96631.81
2022-08-13T23:38:01.023Z,96624.22
2022-08-13T23:40:29.837Z,96621.72
2022-08-13T23:43:00.349Z,96618.66
2022-08-13T23:48:15.667Z,96616.88
2022-08-13T23:50:45.868Z,96609.88
2022-08-13T23:53:36.689Z,96607.63
2022-08-13T23:59:03.465Z,96595.94
